createdAt,value
2023-02-13T00:00:46.210Z,62.90
2023-02-13T00:03:27.898Z,72.32
2023-02-13T00:06:05.924Z,71.90
2023-02-13T00:08:47.229Z,94.95
2023-02-13T00:11:33.735Z,81.13
2023-02-13T00:14:19.747Z,75.20
2023-02-13T00:17:06.208Z,95.18
2023-02-13T00:19:44.001Z,87.05
2023-02-13T00:22:25.102Z,86.20
2023-02-13T00:25:05.790Z,107.93
2023-02-13T00:27:40.569Z,110.38
2023-02-13T00:30:20.171Z,92.85
2023-02-13T00:32:55.378Z,99.85
2023-02-13T00:35:33.905Z,95.85
2023-02-13T00:38:17.924Z,119.82
2023-02-13T00:40:52.393Z,109.28
2023-02-13T00:43:24.875Z,94.68
2023-02-13T00:46:03.099Z,89.22
2023-02-13T00:48:39.745Z,78.75
2023-02-13T00:51:14.878Z,53.95
2023-02-13T00:53:47.950Z,56.65
2023-02-13T00:56:24.672Z,50.50
2023-02-13T00:58:54.705Z,40.72
2023-02-13T01:01:28.708Z,36.95
2023-02-13T01:04:12.837Z,40.20
2023-02-13T01:06:50.123Z,35.72
2023-02-13T01:09:33.466Z,35.72
2023-02-13T01:12:13.881Z,31.95
2023-02-13T01:14:48.885Z,38.63
2023-02-13T01:17:38.084Z,36.60
2023-02-13T01:20:14.850Z,32.65
2023-02-13T01:22:47.077Z,35.72
2023-02-13T01:25:19.158Z,43.08
2023-02-13T01:27:59.941Z,55.50
2023-02-13T01:30:35.020Z,57.22
2023-02-13T01:33:09.621Z,60.17
2023-02-13T01:35:49.758Z,48.22
2023-02-13T01:38:25.288Z,41.47
2023-02-13T01:41:03.674Z,39.17
2023-02-13T01:44:45.985Z,33.95
2023-02-13T01:47:40.501Z,41.88
2023-02-13T01:50:23.161Z,41.40
2023-02-13T01:53:28.530Z,49.35
2023-02-13T01:56:07.372Z,45.55
2023-02-13T01:58:47.190Z,43.85
2023-02-13T02:01:24.588Z,45.33
2023-02-13T02:04:32.037Z,46.33
2023-02-13T02:07:38.853Z,41.95
2023-02-13T02:10:22.408Z,45.28
2023-02-13T02:13:07.956Z,49.00
2023-02-13T02:15:49.348Z,49.85
2023-02-13T02:18:25.882Z,52.28
2023-02-13T02:21:17.189Z,45.42
2023-02-13T02:24:02.957Z,44.88
2023-02-13T02:26:59.103Z,43.10
2023-02-13T02:29:53.049Z,43.05
2023-02-13T02:32:41.083Z,45.40
2023-02-13T02:35:34.661Z,39.35
2023-02-13T02:38:29.685Z,49.05
2023-02-13T02:41:46.693Z,45.15
2023-02-13T02:44:52.149Z,40.63
2023-02-13T02:48:11.174Z,39.70
2023-02-13T02:50:53.360Z,39.88
2023-02-13T02:54:01.591Z,39.50
2023-02-13T02:56:47.675Z,36.42
2023-02-13T02:59:44.310Z,44.22
2023-02-13T03:02:36.991Z,50.17
2023-02-13T03:05:58.255Z,52.80
2023-02-13T03:08:48.054Z,53.00
2023-02-13T03:11:39.848Z,59.45
2023-02-13T03:14:19.465Z,51.08
2023-02-13T03:17:13.037Z,50.95
2023-02-13T03:20:37.189Z,56.35
2023-02-13T03:23:21.968Z,65.75
2023-02-13T03:26:11.881Z,65.15
2023-02-13T03:29:30.929Z,74.63
2023-02-13T03:32:15.598Z,72.53
2023-02-13T03:35:23.786Z,67.22
2023-02-13T03:38:08.435Z,78.10
2023-02-13T03:41:20.225Z,62.88
2023-02-13T03:44:15.284Z,66.15
2023-02-13T03:46:55.002Z,66.75
2023-02-13T03:49:49.662Z,68.25
2023-02-13T03:52:32.180Z,69.18
2023-02-13T03:55:59.162Z,65.85
2023-02-13T03:59:13.226Z,72.15
2023-02-13T04:02:08.630Z,71.45
2023-02-13T04:04:55.335Z,68.22
2023-02-13T04:07:35.722Z,71.40
2023-02-13T04:10:20.569Z,66.85
2023-02-13T04:13:18.378Z,73.68
2023-02-13T04:16:13.049Z,69.32
2023-02-13T04:18:55.311Z,65.68
2023-02-13T04:21:37.492Z,70.00
2023-02-13T04:24:16.827Z,78.25
2023-02-13T04:26:59.293Z,66.78
2023-02-13T04:29:42.759Z,72.75
2023-02-13T04:32:32.132Z,67.50
2023-02-13T04:35:18.521Z,68.47
2023-02-13T04:37:56.696Z,65.40
2023-02-13T04:40:31.850Z,73.93
2023-02-13T04:43:14.877Z,72.85
2023-02-13T04:45:59.152Z,81.00
2023-02-13T04:48:31.319Z,77.57
2023-02-13T04:50:58.644Z,72.28
2023-02-13T04:53:39.600Z,78.15
2023-02-13T04:56:21.497Z,78.05
2023-02-13T04:59:02.181Z,81.90
2023-02-13T05:01:37.406Z,83.30
2023-02-13T05:04:16.416Z,80.63
2023-02-13T05:06:54.870Z,74.20
2023-02-13T05:09:33.121Z,80.82
2023-02-13T05:12:19.672Z,90.85
2023-02-13T05:15:02.038Z,95.28
2023-02-13T05:17:36.287Z,107.93
2023-02-13T05:20:11.947Z,135.52
2023-02-13T05:23:12.437Z,132.70
2023-02-13T05:25:55.716Z,122.78
2023-02-13T05:28:47.682Z,119.88
2023-02-13T05:31:23.243Z,108.00
2023-02-13T05:34:06.288Z,94.55
2023-02-13T05:36:43.992Z,92.75
2023-02-13T05:39:24.168Z,92.40
2023-02-13T05:42:12.797Z,90.88
2023-02-13T05:44:58.062Z,79.82
2023-02-13T05:47:49.516Z,74.88
2023-02-13T05:50:30.802Z,78.45
2023-02-13T05:53:02.840Z,79.57
2023-02-13T05:55:38.080Z,62.88
2023-02-13T05:58:16.238Z,67.72
2023-02-13T06:00:55.661Z,72.88
2023-02-13T06:03:32.180Z,75.47
2023-02-13T06:06:15.138Z,64.38
2023-02-13T06:08:50.286Z,77.60
2023-02-13T06:11:42.034Z,70.18
2023-02-13T06:14:17.835Z,61.15
2023-02-13T06:16:57.810Z,66.25
2023-02-13T06:19:33.145Z,70.97
2023-02-13T06:22:12.030Z,71.95
2023-02-13T06:24:45.872Z,74.20
2023-02-13T06:27:21.685Z,90.93
2023-02-13T06:30:05.482Z,81.60
2023-02-13T06:32:40.536Z,92.68
2023-02-13T06:35:21.275Z,98.85
2023-02-13T06:37:59.856Z,93.38
2023-02-13T06:40:41.203Z,94.80
2023-02-13T06:43:19.353Z,103.30
2023-02-13T06:45:53.984Z,98.82
2023-02-13T06:48:29.133Z,109.25
2023-02-13T06:51:04.428Z,102.15
2023-02-13T06:53:42.610Z,100.38
2023-02-13T06:56:18.310Z,108.35
2023-02-13T06:58:58.679Z,106.68
2023-02-13T07:01:36.916Z,101.30
2023-02-13T07:04:09.335Z,103.95
2023-02-13T07:06:50.211Z,123.23
2023-02-13T07:09:28.484Z,116.78
2023-02-13T07:12:10.636Z,125.45
2023-02-13T07:14:49.283Z,126.05
2023-02-13T07:17:32.487Z,152.25
2023-02-13T07:20:06.968Z,126.03
2023-02-13T07:22:47.201Z,114.40
2023-02-13T07:25:25.355Z,120.45
2023-02-13T07:28:15.408Z,95.82
2023-02-13T07:31:02.048Z,106.55
2023-02-13T07:33:40.237Z,101.85
2023-02-13T07:36:15.638Z,103.47
2023-02-13T07:38:56.362Z,90.90
2023-02-13T07:41:37.183Z,87.13
2023-02-13T07:44:14.607Z,74.50
2023-02-13T07:46:55.806Z,86.15
2023-02-13T07:49:37.497Z,83.88
2023-02-13T07:52:12.628Z,84.13
2023-02-13T07:54:50.340Z,84.93
2023-02-13T07:57:29.860Z,67.93
2023-02-13T08:00:06.161Z,72.88
2023-02-13T08:02:46.594Z,78.03
2023-02-13T08:05:19.297Z,85.63
2023-02-13T08:07:55.991Z,93.75
2023-02-13T08:10:52.414Z,81.63
2023-02-13T08:13:30.056Z,57.35
2023-02-13T08:16:05.248Z,80.45
2023-02-13T08:18:49.088Z,79.30
2023-02-13T08:21:24.244Z,82.88
2023-02-13T08:24:10.518Z,76.40
2023-02-13T08:26:48.236Z,76.63
2023-02-13T08:29:26.025Z,79.30
2023-02-13T08:32:02.028Z,72.93
2023-02-13T08:34:45.454Z,70.68
2023-02-13T08:37:24.132Z,65.97
2023-02-13T08:40:05.395Z,62.83
2023-02-13T08:42:40.633Z,58.33
2023-02-13T08:45:17.108Z,56.72
2023-02-13T08:48:04.016Z,50.60
2023-02-13T08:50:39.328Z,42.60
2023-02-13T08:53:21.302Z,38.47
2023-02-13T08:56:03.607Z,32.72
2023-02-13T08:58:36.188Z,32.38
2023-02-13T09:01:24.131Z,33.95
2023-02-13T09:04:07.433Z,32.97
2023-02-13T09:06:46.945Z,36.67
2023-02-13T09:09:27.499Z,32.58
2023-02-13T09:12:07.663Z,28.13
2023-02-13T09:14:48.300Z,36.35
2023-02-13T09:17:36.841Z,34.40
2023-02-13T09:20:14.059Z,37.15
2023-02-13T09:22:57.196Z,37.55
2023-02-13T09:25:40.971Z,26.85
2023-02-13T09:28:21.732Z,35.10
2023-02-13T09:31:02.017Z,29.80
2023-02-13T09:33:40.726Z,36.20
2023-02-13T09:36:36.355Z,39.65
2023-02-13T09:39:18.705Z,41.63
2023-02-13T09:42:08.346Z,37.83
2023-02-13T09:44:46.879Z,32.05
2023-02-13T09:47:46.336Z,37.13
2023-02-13T09:50:33.576Z,36.38
2023-02-13T09:53:23.383Z,45.92
2023-02-13T09:56:11.085Z,33.13
2023-02-13T09:59:01.866Z,41.00
2023-02-13T10:01:45.839Z,37.72
2023-02-13T10:04:39.944Z,34.78
2023-02-13T10:07:50.802Z,36.70
2023-02-13T10:10:55.362Z,39.35
2023-02-13T10:13:52.091Z,37.65
2023-02-13T10:16:53.572Z,35.40
2023-02-13T10:20:07.970Z,34.00
2023-02-13T10:23:08.537Z,36.10
2023-02-13T10:26:03.509Z,35.60
2023-02-13T10:29:25.376Z,33.75
2023-02-13T10:32:13.829Z,33.55
2023-02-13T10:35:01.339Z,38.38
2023-02-13T10:37:43.707Z,34.42
2023-02-13T10:40:22.123Z,35.72
2023-02-13T10:43:24.938Z,32.25
2023-02-13T10:46:59.504Z,35.90
2023-02-13T10:49:53.928Z,31.67
2023-02-13T10:53:04.263Z,35.53
2023-02-13T10:55:52.201Z,35.85
2023-02-13T10:58:41.635Z,31.23
2023-02-13T11:01:51.607Z,30.67
2023-02-13T11:04:34.844Z,29.88
2023-02-13T11:07:19.558Z,31.52
2023-02-13T11:10:05.822Z,29.48
2023-02-13T11:12:58.188Z,31.00
2023-02-13T11:16:01.604Z,29.88
2023-02-13T11:18:44.494Z,32.55
2023-02-13T11:21:36.024Z,31.38
2023-02-13T11:24:22.692Z,28.60
2023-02-13T11:27:09.492Z,28.05
2023-02-13T11:30:03.079Z,28.48
2023-02-13T11:32:43.918Z,27.13
2023-02-13T11:35:39.402Z,29.30
2023-02-13T11:38:30.949Z,27.80
2023-02-13T11:41:49.254Z,30.15
2023-02-13T11:44:35.223Z,27.35
2023-02-13T11:47:16.209Z,28.65
2023-02-13T11:50:02.490Z,40.65
2023-02-13T11:52:45.133Z,30.27
2023-02-13T11:55:42.872Z,32.40
2023-02-13T11:58:27.854Z,26.02
2023-02-13T12:01:22.579Z,25.13
2023-02-13T12:04:18.121Z,25.98
2023-02-13T12:07:22.035Z,26.05
2023-02-13T12:10:17.383Z,23.42
2023-02-13T12:13:27.540Z,30.08
2023-02-13T12:16:30.630Z,26.90
2023-02-13T12:19:21.526Z,23.13
2023-02-13T12:22:07.821Z,27.65
2023-02-13T12:25:00.565Z,22.17
2023-02-13T12:28:30.257Z,26.52
2023-02-13T12:31:30.833Z,19.90
2023-02-13T12:34:21.529Z,22.85
2023-02-13T12:37:11.814Z,20.67
2023-02-13T12:40:20.436Z,26.13
2023-02-13T12:43:24.391Z,28.75
2023-02-13T12:46:48.665Z,28.27
2023-02-13T12:49:33.804Z,25.07
2023-02-13T12:52:44.817Z,24.23
2023-02-13T12:55:41.064Z,28.33
2023-02-13T12:58:59.786Z,31.55
2023-02-13T13:01:54.020Z,26.10
2023-02-13T13:04:47.281Z,26.27
2023-02-13T13:07:43.643Z,42.38
2023-02-13T13:11:06.718Z,26.42
2023-02-13T13:14:06.915Z,30.27
2023-02-13T13:16:55.826Z,30.60
2023-02-13T13:19:45.783Z,27.83
2023-02-13T13:22:34.945Z,33.25
2023-02-13T13:25:39.852Z,26.02
2023-02-13T13:28:47.901Z,27.45
2023-02-13T13:31:33.261Z,28.50
2023-02-13T13:34:19.706Z,32.30
2023-02-13T13:37:22.854Z,32.15
2023-02-13T13:40:08.226Z,33.15
2023-02-13T13:43:14.517Z,28.38
2023-02-13T13:46:06.938Z,27.85
2023-02-13T13:48:53.799Z,26.75
2023-02-13T13:51:30.734Z,29.88
2023-02-13T13:54:06.759Z,32.28
2023-02-13T13:57:06.690Z,25.90
2023-02-13T13:59:41.949Z,26.40
2023-02-13T14:02:43.732Z,22.98
2023-02-13T14:05:41.171Z,24.08
2023-02-13T14:08:49.400Z,30.17
2023-02-13T14:11:41.491Z,24.70
2023-02-13T14:14:35.501Z,28.60
2023-02-13T14:17:21.501Z,26.02
2023-02-13T14:20:04.734Z,26.77
2023-02-13T14:22:44.675Z,25.15
2023-02-13T14:25:40.549Z,27.98
2023-02-13T14:28:30.122Z,27.88
2023-02-13T14:31:32.582Z,39.60
2023-02-13T14:34:16.976Z,31.20
2023-02-13T14:37:06.852Z,39.50
2023-02-13T14:39:48.970Z,31.75
2023-02-13T14:42:34.920Z,40.67
2023-02-13T14:45:27.331Z,32.25
2023-02-13T14:48:17.708Z,31.48
2023-02-13T14:51:00.276Z,31.30
2023-02-13T14:53:50.752Z,38.58
2023-02-13T14:56:36.745Z,38.10
2023-02-13T14:59:17.924Z,36.38
2023-02-13T15:02:15.433Z,38.72
2023-02-13T15:04:59.645Z,32.17
2023-02-13T15:07:42.382Z,36.10
2023-02-13T15:10:49.683Z,36.15
2023-02-13T15:13:40.708Z,37.05
2023-02-13T15:16:24.194Z,38.85
2023-02-13T15:19:06.370Z,34.58
2023-02-13T15:21:52.689Z,35.78
2023-02-13T15:24:34.529Z,33.63
2023-02-13T15:27:32.597Z,31.10
2023-02-13T15:30:41.629Z,36.38
2023-02-13T15:33:28.901Z,34.58
2023-02-13T15:36:19.443Z,37.78
2023-02-13T15:39:10.446Z,28.55
2023-02-13T15:41:50.156Z,33.20
2023-02-13T15:44:43.021Z,32.50
2023-02-13T15:47:50.550Z,38.33
2023-02-13T15:50:45.754Z,34.60
2023-02-13T15:53:30.823Z,31.88
2023-02-13T15:56:10.962Z,31.75
2023-02-13T15:58:59.067Z,29.65
2023-02-13T16:01:51.944Z,44.03
2023-02-13T16:04:33.856Z,37.05
2023-02-13T16:07:37.880Z,41.22
2023-02-13T16:10:41.860Z,42.28
2023-02-13T16:13:25.742Z,45.45
2023-02-13T16:16:24.138Z,39.00
2023-02-13T16:19:07.537Z,43.17
2023-02-13T16:21:56.336Z,42.70
2023-02-13T16:24:37.554Z,53.17
2023-02-13T16:27:28.369Z,61.50
2023-02-13T16:30:33.438Z,63.65
2023-02-13T16:33:39.392Z,80.65
2023-02-13T16:36:18.149Z,71.20
2023-02-13T16:39:13.753Z,61.58
2023-02-13T16:42:00.439Z,65.45
2023-02-13T16:45:01.421Z,62.10
2023-02-13T16:47:42.905Z,54.45
2023-02-13T16:50:25.832Z,55.22
2023-02-13T16:53:07.416Z,69.75
2023-02-13T16:55:39.318Z,63.92
2023-02-13T16:58:27.758Z,66.50
2023-02-13T17:01:18.785Z,52.92
2023-02-13T17:03:59.793Z,49.83
2023-02-13T17:06:40.964Z,43.83
2023-02-13T17:09:41.913Z,45.60
2023-02-13T17:12:28.237Z,57.42
2023-02-13T17:15:06.799Z,48.72
2023-02-13T17:17:54.042Z,68.40
2023-02-13T17:20:36.464Z,70.50
2023-02-13T17:23:25.426Z,93.55
2023-02-13T17:26:04.016Z,90.30
2023-02-13T17:28:42.155Z,114.93
2023-02-13T17:31:25.439Z,107.55
2023-02-13T17:34:08.803Z,80.85
2023-02-13T17:36:46.498Z,60.75
2023-02-13T17:39:31.594Z,72.60
2023-02-13T17:42:09.146Z,65.63
2023-02-13T17:44:44.997Z,53.40
2023-02-13T17:47:21.223Z,56.55
2023-02-13T17:50:09.948Z,54.15
2023-02-13T17:53:02.373Z,54.30
2023-02-13T17:55:45.330Z,58.50
2023-02-13T17:58:21.039Z,56.80
2023-02-13T18:01:05.230Z,48.15
2023-02-13T18:03:40.393Z,56.78
2023-02-13T18:06:38.253Z,52.10
2023-02-13T18:09:17.015Z,54.63
2023-02-13T18:12:06.273Z,59.88
2023-02-13T18:14:52.084Z,54.58
2023-02-13T18:17:32.388Z,45.30
2023-02-13T18:20:17.026Z,53.38
2023-02-13T18:23:00.897Z,55.78
2023-02-13T18:25:40.510Z,58.50
2023-02-13T18:28:18.193Z,72.03
2023-02-13T18:30:59.368Z,67.82
2023-02-13T18:33:39.426Z,89.45
2023-02-13T18:36:15.019Z,91.13
2023-02-13T18:38:57.352Z,101.40
2023-02-13T18:41:40.693Z,98.82
2023-02-13T18:44:28.499Z,107.43
2023-02-13T18:47:08.070Z,107.70
2023-02-13T18:50:01.269Z,98.93
2023-02-13T18:52:34.918Z,88.80
2023-02-13T18:55:17.755Z,90.05
2023-02-13T18:57:57.477Z,90.43
2023-02-13T19:00:46.338Z,75.80
2023-02-13T19:03:23.455Z,82.65
2023-02-13T19:06:09.182Z,72.70
2023-02-13T19:08:59.209Z,66.70
2023-02-13T19:11:51.761Z,71.68
2023-02-13T19:14:40.092Z,64.85
2023-02-13T19:17:17.056Z,71.30
2023-02-13T19:19:55.031Z,71.75
2023-02-13T19:22:35.972Z,71.95
2023-02-13T19:25:19.011Z,74.10
2023-02-13T19:28:03.595Z,76.68
2023-02-13T19:30:41.880Z,79.53
2023-02-13T19:33:28.216Z,65.60
2023-02-13T19:36:19.472Z,70.47
2023-02-13T19:39:09.733Z,71.63
2023-02-13T19:41:48.057Z,76.60
2023-02-13T19:47:06.451Z,65.10
2023-02-13T19:49:48.129Z,72.47
2023-02-13T19:52:18.848Z,88.30
2023-02-13T19:54:56.974Z,63.28
2023-02-13T19:57:40.110Z,65.22
2023-02-13T20:00:22.902Z,68.78
2023-02-13T20:03:05.197Z,63.35
2023-02-13T20:05:49.265Z,61.33
2023-02-13T20:08:27.569Z,62.63
2023-02-13T20:11:11.270Z,61.88
2023-02-13T20:16:30.238Z,60.17
2023-02-13T20:19:15.427Z,72.10
2023-02-13T20:21:53.094Z,88.00
2023-02-13T20:24:30.784Z,90.75
2023-02-13T20:27:11.730Z,93.65
2023-02-13T20:29:48.132Z,88.18
2023-02-13T20:32:28.108Z,92.25
2023-02-13T20:35:06.522Z,85.68
2023-02-13T20:37:51.198Z,91.30
2023-02-13T20:40:28.796Z,86.63
2023-02-13T20:43:10.190Z,100.63
2023-02-13T20:45:50.698Z,108.43
2023-02-13T20:48:28.423Z,94.00
2023-02-13T20:51:15.554Z,85.57
2023-02-13T20:53:45.721Z,85.15
2023-02-13T20:56:42.095Z,83.53
2023-02-13T20:59:17.725Z,76.00
2023-02-13T21:01:55.014Z,76.90
2023-02-13T21:04:32.651Z,80.50
2023-02-13T21:07:09.179Z,77.00
2023-02-13T21:09:39.957Z,86.78
2023-02-13T21:12:21.881Z,93.57
2023-02-13T21:14:56.926Z,94.15
2023-02-13T21:17:29.608Z,89.43
2023-02-13T21:20:02.289Z,92.85
2023-02-13T21:22:42.988Z,84.30
2023-02-13T21:25:20.653Z,81.05
2023-02-13T21:27:52.391Z,67.28
2023-02-13T21:30:37.154Z,69.43
2023-02-13T21:33:17.880Z,75.05
2023-02-13T21:36:02.149Z,66.53
2023-02-13T21:38:34.513Z,75.78
2023-02-13T21:41:19.581Z,61.95
2023-02-13T21:43:54.101Z,61.40
2023-02-13T21:46:35.318Z,59.20
2023-02-13T21:49:15.504Z,65.78
2023-02-13T21:51:53.073Z,59.80
2023-02-13T21:54:25.934Z,60.72
2023-02-13T21:57:14.108Z,59.88
2023-02-13T21:59:49.181Z,64.90
2023-02-13T22:02:27.047Z,59.10
2023-02-13T22:05:07.431Z,59.13
2023-02-13T22:08:01.085Z,58.55
2023-02-13T22:10:44.758Z,61.30
2023-02-13T22:16:12.412Z,60.03
2023-02-13T22:18:50.673Z,61.22
2023-02-13T22:21:48.008Z,59.75
2023-02-13T22:24:22.720Z,76.18
2023-02-13T22:26:57.075Z,64.47
2023-02-13T22:29:32.326Z,62.13
2023-02-13T22:32:11.768Z,60.60
2023-02-13T22:34:52.075Z,55.30
2023-02-13T22:37:32.736Z,58.55
2023-02-13T22:40:11.971Z,59.70
2023-02-13T22:42:52.716Z,62.15
2023-02-13T22:45:27.563Z,68.82
2023-02-13T22:48:07.670Z,60.53
2023-02-13T22:50:43.665Z,63.67
2023-02-13T22:53:16.370Z,76.13
2023-02-13T22:55:46.190Z,70.65
2023-02-13T22:58:24.494Z,73.97
2023-02-13T23:01:05.310Z,93.00
2023-02-13T23:03:38.273Z,81.38
2023-02-13T23:06:22.012Z,81.55
2023-02-13T23:08:58.260Z,73.75
2023-02-13T23:11:48.056Z,78.72
2023-02-13T23:14:27.935Z,84.75
2023-02-13T23:17:21.349Z,96.30
2023-02-13T23:19:59.149Z,73.82
2023-02-13T23:22:32.100Z,88.80
2023-02-13T23:25:12.458Z,88.10
2023-02-13T23:27:53.759Z,90.85
2023-02-13T23:30:31.438Z,96.03
2023-02-13T23:33:08.730Z,80.65
2023-02-13T23:35:41.306Z,77.40
2023-02-13T23:38:19.031Z,80.32
2023-02-13T23:40:49.032Z,90.80
2023-02-13T23:43:27.430Z,104.28
2023-02-13T23:46:07.812Z,107.03
2023-02-13T23:48:54.459Z,101.07
2023-02-13T23:51:32.011Z,98.60
2023-02-13T23:54:07.250Z,102.10
2023-02-13T23:56:40.079Z,117.63
2023-02-13T23:59:15.742Z,94.90
